sensor_id;sensor_type;location;lat;lon;timestamp;P1;durP1;ratioP1;P2;durP2;ratioP2
22191;SDS011;11261;52.456;10.850;2022-08-19T00:01:27;7.88;;;5.43;;
22191;SDS011;11261;52.456;10.850;2022-08-19T00:03:56;8.32;;;5.03;;
22191;SDS011;11261;52.456;10.850;2022-08-19T00:06:26;9.27;;;6.30;;
22191;SDS011;11261;52.456;10.850;2022-08-19T00:08:55;7.00;;;4.45;;
22191;SDS011;11261;52.456;10.850;2022-08-19T00:11:24;7.30;;;5.95;;
22191;SDS011;11261;52.456;10.850;2022-08-19T00:13:53;9.35;;;6.43;;
22191;SDS011;11261;52.456;10.850;2022-08-19T00:16:24;7.85;;;5.75;;
22191;SDS011;11261;52.456;10.850;2022-08-19T00:18:53;10.30;;;6.78;;
22191;SDS011;11261;52.456;10.850;2022-08-19T00:21:22;7.07;;;5.15;;
22191;SDS011;11261;52.456;10.850;2022-08-19T00:23:53;7.28;;;5.35;;
22191;SDS011;11261;52.456;10.850;2022-08-19T00:26:24;9.02;;;6.00;;
22191;SDS011;11261;52.456;10.850;2022-08-19T00:28:53;6.35;;;5.32;;
22191;SDS011;11261;52.456;10.850;2022-08-19T00:31:21;6.03;;;5.10;;
22191;SDS011;11261;52.456;10.850;2022-08-19T00:33:51;6.90;;;5.72;;
22191;SDS011;11261;52.456;10.850;2022-08-19T00:36:20;7.35;;;5.20;;
22191;SDS011;11261;52.456;10.850;2022-08-19T00:38:48;8.25;;;5.10;;
22191;SDS011;11261;52.456;10.850;2022-08-19T00:41:18;10.20;;;6.15;;
22191;SDS011;11261;52.456;10.850;2022-08-19T00:44:02;6.13;;;4.70;;
22191;SDS011;11261;52.456;10.850;2022-08-19T00:46:34;6.78;;;4.82;;
22191;SDS011;11261;52.456;10.850;2022-08-19T00:49:06;7.10;;;5.05;;
22191;SDS011;11261;52.456;10.850;2022-08-19T00:51:41;12.48;;;5.60;;
22191;SDS011;11261;52.456;10.850;2022-08-19T00:54:11;8.05;;;4.90;;
22191;SDS011;11261;52.456;10.850;2022-08-19T00:56:40;8.98;;;5.28;;
22191;SDS011;11261;52.456;10.850;2022-08-19T00:59:09;7.68;;;4.60;;
22191;SDS011;11261;52.456;10.850;2022-08-19T01:01:39;7.00;;;5.25;;
22191;SDS011;11261;52.456;10.850;2022-08-19T01:04:10;6.85;;;4.80;;
22191;SDS011;11261;52.456;10.850;2022-08-19T01:06:38;6.15;;;4.50;;
22191;SDS011;11261;52.456;10.850;2022-08-19T01:09:10;5.32;;;4.60;;
22191;SDS011;11261;52.456;10.850;2022-08-19T01:11:39;6.97;;;5.13;;
22191;SDS011;11261;52.456;10.850;2022-08-19T01:14:11;7.72;;;5.80;;
22191;SDS011;11261;52.456;10.850;2022-08-19T01:16:41;8.15;;;4.97;;
22191;SDS011;11261;52.456;10.850;2022-08-19T01:19:12;6.63;;;4.88;;
22191;SDS011;11261;52.456;10.850;2022-08-19T01:21:48;4.85;;;4.30;;
22191;SDS011;11261;52.456;10.850;2022-08-19T01:24:24;9.88;;;4.97;;
22191;SDS011;11261;52.456;10.850;2022-08-19T01:26:52;6.28;;;4.57;;
22191;SDS011;11261;52.456;10.850;2022-08-19T01:29:22;7.10;;;5.13;;
22191;SDS011;11261;52.456;10.850;2022-08-19T01:31:51;5.35;;;4.30;;
22191;SDS011;11261;52.456;10.850;2022-08-19T01:34:19;7.88;;;4.40;;
22191;SDS011;11261;52.456;10.850;2022-08-19T01:36:48;5.75;;;4.28;;
22191;SDS011;11261;52.456;10.850;2022-08-19T01:39:17;5.95;;;4.47;;
22191;SDS011;11261;52.456;10.850;2022-08-19T01:41:49;5.95;;;4.88;;
22191;SDS011;11261;52.456;10.850;2022-08-19T01:44:20;6.50;;;5.05;;
22191;SDS011;11261;52.456;10.850;2022-08-19T01:46:50;8.13;;;4.88;;
22191;SDS011;11261;52.456;10.850;2022-08-19T01:49:20;8.90;;;5.13;;
22191;SDS011;11261;52.456;10.850;2022-08-19T01:51:50;6.47;;;4.30;;
22191;SDS011;11261;52.456;10.850;2022-08-19T01:54:21;8.23;;;5.18;;
22191;SDS011;11261;52.456;10.850;2022-08-19T01:56:55;8.07;;;4.90;;
22191;SDS011;11261;52.456;10.850;2022-08-19T01:59:27;7.00;;;4.70;;
22191;SDS011;11261;52.456;10.850;2022-08-19T02:01:56;6.25;;;4.50;;
22191;SDS011;11261;52.456;10.850;2022-08-19T02:04:25;5.88;;;4.40;;
22191;SDS011;11261;52.456;10.850;2022-08-19T02:06:53;7.70;;;4.82;;
22191;SDS011;11261;52.456;10.850;2022-08-19T02:09:21;4.25;;;3.83;;
22191;SDS011;11261;52.456;10.850;2022-08-19T02:11:49;7.35;;;4.82;;
22191;SDS011;11261;52.456;10.850;2022-08-19T02:14:19;8.20;;;5.85;;
22191;SDS011;11261;52.456;10.850;2022-08-19T02:16:47;8.02;;;5.00;;
22191;SDS011;11261;52.456;10.850;2022-08-19T02:19:15;6.80;;;4.60;;
22191;SDS011;11261;52.456;10.850;2022-08-19T02:21:43;7.10;;;4.72;;
22191;SDS011;11261;52.456;10.850;2022-08-19T02:24:12;6.15;;;4.15;;
22191;SDS011;11261;52.456;10.850;2022-08-19T02:26:40;6.35;;;4.93;;
22191;SDS011;11261;52.456;10.850;2022-08-19T02:29:08;5.50;;;4.80;;
22191;SDS011;11261;52.456;10.850;2022-08-19T02:31:38;7.32;;;4.85;;
22191;SDS011;11261;52.456;10.850;2022-08-19T02:34:06;4.80;;;4.25;;
22191;SDS011;11261;52.456;10.850;2022-08-19T02:36:34;5.38;;;4.22;;
22191;SDS011;11261;52.456;10.850;2022-08-19T02:39:09;6.40;;;4.55;;
22191;SDS011;11261;52.456;10.850;2022-08-19T02:41:36;6.78;;;4.78;;
22191;SDS011;11261;52.456;10.850;2022-08-19T02:44:05;6.10;;;4.68;;
22191;SDS011;11261;52.456;10.850;2022-08-19T02:46:54;9.32;;;5.32;;
22191;SDS011;11261;52.456;10.850;2022-08-19T02:49:23;6.93;;;4.32;;
22191;SDS011;11261;52.456;10.850;2022-08-19T02:51:51;7.30;;;5.38;;
22191;SDS011;11261;52.456;10.850;2022-08-19T02:54:20;10.45;;;5.38;;
22191;SDS011;11261;52.456;10.850;2022-08-19T02:56:48;7.50;;;5.25;;
22191;SDS011;11261;52.456;10.850;2022-08-19T02:59:16;5.63;;;4.60;;
22191;SDS011;11261;52.456;10.850;2022-08-19T03:01:48;6.75;;;5.13;;
22191;SDS011;11261;52.456;10.850;2022-08-19T03:04:18;5.55;;;4.57;;
22191;SDS011;11261;52.456;10.850;2022-08-19T03:06:47;5.40;;;4.57;;
22191;SDS011;11261;52.456;10.850;2022-08-19T03:09:16;7.30;;;4.72;;
22191;SDS011;11261;52.456;10.850;2022-08-19T03:11:46;7.65;;;5.25;;
22191;SDS011;11261;52.456;10.850;2022-08-19T03:14:17;7.10;;;4.88;;
22191;SDS011;11261;52.456;10.850;2022-08-19T03:16:46;6.13;;;3.97;;
22191;SDS011;11261;52.456;10.850;2022-08-19T03:19:18;6.25;;;4.32;;
22191;SDS011;11261;52.456;10.850;2022-08-19T03:21:48;6.63;;;4.97;;
22191;SDS011;11261;52.456;10.850;2022-08-19T03:24:17;7.15;;;4.03;;
22191;SDS011;11261;52.456;10.850;2022-08-19T03:26:47;7.70;;;3.97;;
22191;SDS011;11261;52.456;10.850;2022-08-19T03:29:17;7.05;;;4.85;;
22191;SDS011;11261;52.456;10.850;2022-08-19T03:31:56;8.07;;;5.15;;
22191;SDS011;11261;52.456;10.850;2022-08-19T03:34:29;6.78;;;4.47;;
22191;SDS011;11261;52.456;10.850;2022-08-19T03:36:59;8.13;;;5.07;;
22191;SDS011;11261;52.456;10.850;2022-08-19T03:39:33;7.60;;;4.28;;
22191;SDS011;11261;52.456;10.850;2022-08-19T03:42:03;5.47;;;4.32;;
22191;SDS011;11261;52.456;10.850;2022-08-19T03:44:52;6.70;;;4.90;;
22191;SDS011;11261;52.456;10.850;2022-08-19T03:47:20;4.47;;;3.92;;
22191;SDS011;11261;52.456;10.850;2022-08-19T03:49:50;6.53;;;4.60;;
22191;SDS011;11261;52.456;10.850;2022-08-19T03:52:18;6.22;;;4.28;;
22191;SDS011;11261;52.456;10.850;2022-08-19T03:54:46;7.60;;;4.30;;
22191;SDS011;11261;52.456;10.850;2022-08-19T03:57:14;8.25;;;5.25;;
22191;SDS011;11261;52.456;10.850;2022-08-19T03:59:42;5.28;;;4.32;;
22191;SDS011;11261;52.456;10.850;2022-08-19T04:02:11;5.20;;;3.95;;
22191;SDS011;11261;52.456;10.850;2022-08-19T04:04:41;8.38;;;4.50;;
22191;SDS011;11261;52.456;10.850;2022-08-19T04:07:12;5.95;;;4.72;;
22191;SDS011;11261;52.456;10.850;2022-08-19T04:09:42;5.43;;;4.20;;
22191;SDS011;11261;52.456;10.850;2022-08-19T04:12:10;5.43;;;3.85;;
22191;SDS011;11261;52.456;10.850;2022-08-19T04:14:38;8.75;;;4.78;;
22191;SDS011;11261;52.456;10.850;2022-08-19T04:17:07;7.30;;;4.10;;
22191;SDS011;11261;52.456;10.850;2022-08-19T04:19:35;6.80;;;4.70;;
22191;SDS011;11261;52.456;10.850;2022-08-19T04:22:04;5.75;;;4.07;;
22191;SDS011;11261;52.456;10.850;2022-08-19T04:24:34;6.35;;;4.30;;
22191;SDS011;11261;52.456;10.850;2022-08-19T04:27:03;4.45;;;3.85;;
22191;SDS011;11261;52.456;10.850;2022-08-19T04:29:32;6.60;;;3.72;;
22191;SDS011;11261;52.456;10.850;2022-08-19T04:32:02;4.32;;;3.80;;
22191;SDS011;11261;52.456;10.850;2022-08-19T04:34:35;4.75;;;3.75;;
22191;SDS011;11261;52.456;10.850;2022-08-19T04:37:24;5.78;;;4.22;;
22191;SDS011;11261;52.456;10.850;2022-08-19T04:40:02;5.40;;;4.53;;
22191;SDS011;11261;52.456;10.850;2022-08-19T04:42:50;8.52;;;5.13;;
22191;SDS011;11261;52.456;10.850;2022-08-19T04:45:20;5.80;;;4.05;;
22191;SDS011;11261;52.456;10.850;2022-08-19T04:47:48;6.30;;;3.90;;
22191;SDS011;11261;52.456;10.850;2022-08-19T04:50:24;5.20;;;3.90;;
22191;SDS011;11261;52.456;10.850;2022-08-19T04:52:53;5.85;;;3.83;;
22191;SDS011;11261;52.456;10.850;2022-08-19T04:55:23;6.13;;;4.30;;
22191;SDS011;11261;52.456;10.850;2022-08-19T04:57:52;5.90;;;4.28;;
22191;SDS011;11261;52.456;10.850;2022-08-19T05:00:21;4.72;;;3.47;;
22191;SDS011;11261;52.456;10.850;2022-08-19T05:02:49;7.65;;;4.78;;
22191;SDS011;11261;52.456;10.850;2022-08-19T05:05:18;7.93;;;4.78;;
22191;SDS011;11261;52.456;10.850;2022-08-19T05:07:47;6.43;;;3.85;;
22191;SDS011;11261;52.456;10.850;2022-08-19T05:10:15;6.38;;;4.00;;
22191;SDS011;11261;52.456;10.850;2022-08-19T05:12:44;6.80;;;3.58;;
22191;SDS011;11261;52.456;10.850;2022-08-19T05:15:13;7.30;;;3.60;;
22191;SDS011;11261;52.456;10.850;2022-08-19T05:17:41;4.85;;;3.83;;
22191;SDS011;11261;52.456;10.850;2022-08-19T05:20:29;4.72;;;3.75;;
22191;SDS011;11261;52.456;10.850;2022-08-19T05:23:15;5.70;;;3.70;;
22191;SDS011;11261;52.456;10.850;2022-08-19T05:25:47;5.18;;;3.47;;
22191;SDS011;11261;52.456;10.850;2022-08-19T05:28:17;6.00;;;4.07;;
22191;SDS011;11261;52.456;10.850;2022-08-19T05:30:46;5.75;;;3.75;;
22191;SDS011;11261;52.456;10.850;2022-08-19T05:33:14;3.97;;;3.55;;
22191;SDS011;11261;52.456;10.850;2022-08-19T05:35:43;7.15;;;3.95;;
22191;SDS011;11261;52.456;10.850;2022-08-19T05:38:12;5.07;;;3.20;;
22191;SDS011;11261;52.456;10.850;2022-08-19T05:40:41;4.95;;;3.30;;
22191;SDS011;11261;52.456;10.850;2022-08-19T05:43:15;6.13;;;3.85;;
22191;SDS011;11261;52.456;10.850;2022-08-19T05:45:45;6.25;;;4.43;;
22191;SDS011;11261;52.456;10.850;2022-08-19T05:48:13;4.55;;;3.53;;
22191;SDS011;11261;52.456;10.850;2022-08-19T05:50:43;7.18;;;4.70;;
22191;SDS011;11261;52.456;10.850;2022-08-19T05:53:12;4.35;;;3.60;;
22191;SDS011;11261;52.456;10.850;2022-08-19T05:55:42;6.45;;;3.20;;
22191;SDS011;11261;52.456;10.850;2022-08-19T05:58:11;4.40;;;3.03;;
22191;SDS011;11261;52.456;10.850;2022-08-19T06:00:40;7.53;;;4.25;;
22191;SDS011;11261;52.456;10.850;2022-08-19T06:03:11;6.72;;;3.40;;
22191;SDS011;11261;52.456;10.850;2022-08-19T06:05:39;5.43;;;3.83;;
22191;SDS011;11261;52.456;10.850;2022-08-19T06:08:17;9.68;;;4.18;;
22191;SDS011;11261;52.456;10.850;2022-08-19T06:11:12;6.68;;;4.00;;
22191;SDS011;11261;52.456;10.850;2022-08-19T06:13:45;6.93;;;4.28;;
22191;SDS011;11261;52.456;10.850;2022-08-19T06:16:18;5.90;;;4.05;;
22191;SDS011;11261;52.456;10.850;2022-08-19T06:18:49;3.92;;;3.20;;
22191;SDS011;11261;52.456;10.850;2022-08-19T06:21:19;6.00;;;3.35;;
22191;SDS011;11261;52.456;10.850;2022-08-19T06:23:47;4.10;;;3.28;;
22191;SDS011;11261;52.456;10.850;2022-08-19T06:26:17;5.57;;;3.70;;
22191;SDS011;11261;52.456;10.850;2022-08-19T06:28:46;4.68;;;3.33;;
22191;SDS011;11261;52.456;10.850;2022-08-19T06:31:15;7.32;;;3.60;;
22191;SDS011;11261;52.456;10.850;2022-08-19T06:33:47;5.85;;;3.38;;
22191;SDS011;11261;52.456;10.850;2022-08-19T06:36:18;3.80;;;3.15;;
22191;SDS011;11261;52.456;10.850;2022-08-19T06:38:51;4.88;;;3.35;;
22191;SDS011;11261;52.456;10.850;2022-08-19T06:41:19;6.15;;;3.38;;
22191;SDS011;11261;52.456;10.850;2022-08-19T06:43:47;7.47;;;3.92;;
22191;SDS011;11261;52.456;10.850;2022-08-19T06:46:20;4.15;;;3.35;;
22191;SDS011;11261;52.456;10.850;2022-08-19T06:48:50;5.88;;;3.63;;
22191;SDS011;11261;52.456;10.850;2022-08-19T06:51:19;4.63;;;3.20;;
22191;SDS011;11261;52.456;10.850;2022-08-19T06:53:51;7.30;;;3.88;;
22191;SDS011;11261;52.456;10.850;2022-08-19T06:56:21;6.93;;;3.08;;
22191;SDS011;11261;52.456;10.850;2022-08-19T06:58:56;4.35;;;2.90;;
22191;SDS011;11261;52.456;10.850;2022-08-19T07:01:26;5.47;;;3.13;;
22191;SDS011;11261;52.456;10.850;2022-08-19T07:03:54;6.00;;;3.28;;
22191;SDS011;11261;52.456;10.850;2022-08-19T07:06:23;5.50;;;3.33;;
22191;SDS011;11261;52.456;10.850;2022-08-19T07:09:10;6.07;;;3.30;;
22191;SDS011;11261;52.456;10.850;2022-08-19T07:11:44;4.15;;;3.17;;
22191;SDS011;11261;52.456;10.850;2022-08-19T07:14:13;4.20;;;2.85;;
22191;SDS011;11261;52.456;10.850;2022-08-19T07:16:46;5.95;;;3.20;;
22191;SDS011;11261;52.456;10.850;2022-08-19T07:19:16;5.35;;;3.05;;
22191;SDS011;11261;52.456;10.850;2022-08-19T07:21:46;4.10;;;3.15;;
22191;SDS011;11261;52.456;10.850;2022-08-19T07:24:16;4.30;;;3.33;;
22191;SDS011;11261;52.456;10.850;2022-08-19T07:26:45;4.10;;;2.88;;
22191;SDS011;11261;52.456;10.850;2022-08-19T07:29:17;4.00;;;3.13;;
22191;SDS011;11261;52.456;10.850;2022-08-19T07:31:55;4.13;;;3.05;;
22191;SDS011;11261;52.456;10.850;2022-08-19T07:34:26;6.63;;;3.30;;
22191;SDS011;11261;52.456;10.850;2022-08-19T07:36:56;4.07;;;3.20;;
22191;SDS011;11261;52.456;10.850;2022-08-19T07:39:25;9.35;;;4.30;;
22191;SDS011;11261;52.456;10.850;2022-08-19T07:41:57;6.57;;;3.47;;
22191;SDS011;11261;52.456;10.850;2022-08-19T07:44:26;4.90;;;3.13;;
22191;SDS011;11261;52.456;10.850;2022-08-19T07:46:57;7.88;;;4.70;;
22191;SDS011;11261;52.456;10.850;2022-08-19T07:49:26;6.97;;;3.65;;
22191;SDS011;11261;52.456;10.850;2022-08-19T07:51:56;3.45;;;3.05;;
22191;SDS011;11261;52.456;10.850;2022-08-19T07:54:26;3.88;;;3.05;;
22191;SDS011;11261;52.456;10.850;2022-08-19T07:56:55;5.40;;;2.90;;
22191;SDS011;11261;52.456;10.850;2022-08-19T07:59:24;3.85;;;2.92;;
22191;SDS011;11261;52.456;10.850;2022-08-19T08:01:52;4.93;;;3.20;;
22191;SDS011;11261;52.456;10.850;2022-08-19T08:04:22;6.05;;;3.40;;
22191;SDS011;11261;52.456;10.850;2022-08-19T08:07:08;4.47;;;2.97;;
22191;SDS011;11261;52.456;10.850;2022-08-19T08:10:11;3.80;;;2.97;;
22191;SDS011;11261;52.456;10.850;2022-08-19T08:12:47;5.88;;;3.45;;
22191;SDS011;11261;52.456;10.850;2022-08-19T08:15:35;3.85;;;3.38;;
22191;SDS011;11261;52.456;10.850;2022-08-19T08:18:08;4.28;;;2.92;;
22191;SDS011;11261;52.456;10.850;2022-08-19T08:20:39;4.10;;;2.75;;
22191;SDS011;11261;52.456;10.850;2022-08-19T08:23:07;6.53;;;3.35;;
22191;SDS011;11261;52.456;10.850;2022-08-19T08:25:53;4.47;;;3.00;;
22191;SDS011;11261;52.456;10.850;2022-08-19T08:28:23;5.40;;;3.28;;
22191;SDS011;11261;52.456;10.850;2022-08-19T08:30:55;5.30;;;3.00;;
22191;SDS011;11261;52.456;10.850;2022-08-19T08:33:27;5.35;;;3.80;;
22191;SDS011;11261;52.456;10.850;2022-08-19T08:36:01;4.88;;;3.42;;
22191;SDS011;11261;52.456;10.850;2022-08-19T08:38:30;5.38;;;3.03;;
22191;SDS011;11261;52.456;10.850;2022-08-19T08:41:06;4.03;;;3.00;;
22191;SDS011;11261;52.456;10.850;2022-08-19T08:43:45;4.57;;;3.15;;
22191;SDS011;11261;52.456;10.850;2022-08-19T08:46:19;5.45;;;2.88;;
22191;SDS011;11261;52.456;10.850;2022-08-19T08:48:59;4.05;;;2.95;;
22191;SDS011;11261;52.456;10.850;2022-08-19T08:51:37;4.70;;;3.13;;
22191;SDS011;11261;52.456;10.850;2022-08-19T08:54:14;4.13;;;3.30;;
22191;SDS011;11261;52.456;10.850;2022-08-19T08:56:45;4.13;;;2.53;;
22191;SDS011;11261;52.456;10.850;2022-08-19T08:59:19;4.60;;;2.97;;
22191;SDS011;11261;52.456;10.850;2022-08-19T09:01:51;7.97;;;4.47;;
22191;SDS011;11261;52.456;10.850;2022-08-19T09:04:20;6.55;;;3.38;;
22191;SDS011;11261;52.456;10.850;2022-08-19T09:06:52;7.70;;;3.33;;
22191;SDS011;11261;52.456;10.850;2022-08-19T09:09:26;4.22;;;2.85;;
22191;SDS011;11261;52.456;10.850;2022-08-19T09:12:03;4.63;;;3.10;;
22191;SDS011;11261;52.456;10.850;2022-08-19T09:14:40;3.58;;;3.10;;
22191;SDS011;11261;52.456;10.850;2022-08-19T09:17:17;5.95;;;4.00;;
22191;SDS011;11261;52.456;10.850;2022-08-19T09:19:58;6.55;;;3.90;;
22191;SDS011;11261;52.456;10.850;2022-08-19T09:22:36;6.72;;;3.60;;
22191;SDS011;11261;52.456;10.850;2022-08-19T09:25:06;4.90;;;3.22;;
22191;SDS011;11261;52.456;10.850;2022-08-19T09:27:36;4.43;;;2.97;;
22191;SDS011;11261;52.456;10.850;2022-08-19T09:30:20;3.33;;;2.75;;
22191;SDS011;11261;52.456;10.850;2022-08-19T09:32:50;6.20;;;3.22;;
22191;SDS011;11261;52.456;10.850;2022-08-19T09:35:20;4.07;;;3.22;;
22191;SDS011;11261;52.456;10.850;2022-08-19T09:37:51;3.97;;;3.10;;
22191;SDS011;11261;52.456;10.850;2022-08-19T09:40:24;8.00;;;3.25;;
22191;SDS011;11261;52.456;10.850;2022-08-19T09:42:56;6.90;;;3.90;;
22191;SDS011;11261;52.456;10.850;2022-08-19T09:45:38;5.32;;;3.50;;
22191;SDS011;11261;52.456;10.850;2022-08-19T09:48:07;7.20;;;3.67;;
22191;SDS011;11261;52.456;10.850;2022-08-19T09:50:37;4.93;;;3.47;;
22191;SDS011;11261;52.456;10.850;2022-08-19T09:53:20;4.82;;;3.00;;
22191;SDS011;11261;52.456;10.850;2022-08-19T09:55:50;3.55;;;3.00;;
22191;SDS011;11261;52.456;10.850;2022-08-19T09:58:19;4.57;;;3.13;;
22191;SDS011;11261;52.456;10.850;2022-08-19T10:00:52;3.90;;;2.90;;
22191;SDS011;11261;52.456;10.850;2022-08-19T10:03:21;6.40;;;3.83;;
22191;SDS011;11261;52.456;10.850;2022-08-19T10:05:55;4.70;;;3.65;;
22191;SDS011;11261;52.456;10.850;2022-08-19T10:08:30;6.07;;;3.38;;
22191;SDS011;11261;52.456;10.850;2022-08-19T10:11:00;3.30;;;2.75;;
22191;SDS011;11261;52.456;10.850;2022-08-19T10:13:50;3.45;;;2.60;;
22191;SDS011;11261;52.456;10.850;2022-08-19T10:16:19;5.15;;;3.40;;
22191;SDS011;11261;52.456;10.850;2022-08-19T10:18:55;3.67;;;2.75;;
22191;SDS011;11261;52.456;10.850;2022-08-19T10:21:26;6.82;;;3.85;;
22191;SDS011;11261;52.456;10.850;2022-08-19T10:23:59;4.53;;;2.85;;
22191;SDS011;11261;52.456;10.850;2022-08-19T10:26:30;4.32;;;3.65;;
22191;SDS011;11261;52.456;10.850;2022-08-19T10:29:00;7.00;;;3.83;;
22191;SDS011;11261;52.456;10.850;2022-08-19T10:31:30;5.32;;;3.65;;
22191;SDS011;11261;52.456;10.850;2022-08-19T10:34:20;6.80;;;3.78;;
22191;SDS011;11261;52.456;10.850;2022-08-19T10:36:53;5.35;;;3.83;;
22191;SDS011;11261;52.456;10.850;2022-08-19T10:39:28;5.40;;;3.45;;
22191;SDS011;11261;52.456;10.850;2022-08-19T10:42:08;4.80;;;3.15;;
22191;SDS011;11261;52.456;10.850;2022-08-19T10:44:37;7.38;;;3.67;;
22191;SDS011;11261;52.456;10.850;2022-08-19T10:47:06;5.35;;;3.75;;
22191;SDS011;11261;52.456;10.850;2022-08-19T10:49:50;4.53;;;3.50;;
22191;SDS011;11261;52.456;10.850;2022-08-19T10:52:37;4.97;;;3.65;;
22191;SDS011;11261;52.456;10.850;2022-08-19T10:55:17;5.55;;;3.85;;
22191;SDS011;11261;52.456;10.850;2022-08-19T10:58:09;3.80;;;2.85;;
22191;SDS011;11261;52.456;10.850;2022-08-19T11:00:39;5.20;;;4.03;;
22191;SDS011;11261;52.456;10.850;2022-08-19T11:03:08;4.28;;;3.50;;
22191;SDS011;11261;52.456;10.850;2022-08-19T11:05:37;5.80;;;3.67;;
22191;SDS011;11261;52.456;10.850;2022-08-19T11:08:06;4.43;;;3.28;;
22191;SDS011;11261;52.456;10.850;2022-08-19T11:10:50;5.03;;;3.83;;
22191;SDS011;11261;52.456;10.850;2022-08-19T11:13:24;6.00;;;3.90;;
22191;SDS011;11261;52.456;10.850;2022-08-19T11:15:56;5.68;;;4.43;;
22191;SDS011;11261;52.456;10.850;2022-08-19T11:18:32;6.35;;;4.25;;
22191;SDS011;11261;52.456;10.850;2022-08-19T11:21:05;6.05;;;3.97;;
22191;SDS011;11261;52.456;10.850;2022-08-19T11:23:36;4.63;;;2.85;;
22191;SDS011;11261;52.456;10.850;2022-08-19T11:26:05;4.60;;;3.20;;
22191;SDS011;11261;52.456;10.850;2022-08-19T11:28:33;5.28;;;3.80;;
22191;SDS011;11261;52.456;10.850;2022-08-19T11:31:02;5.75;;;3.72;;
22191;SDS011;11261;52.456;10.850;2022-08-19T11:33:30;4.80;;;3.45;;
22191;SDS011;11261;52.456;10.850;2022-08-19T11:35:59;5.28;;;4.00;;
22191;SDS011;11261;52.456;10.850;2022-08-19T11:38:27;5.38;;;3.78;;
22191;SDS011;11261;52.456;10.850;2022-08-19T11:40:56;5.10;;;3.72;;
22191;SDS011;11261;52.456;10.850;2022-08-19T11:43:27;4.72;;;3.58;;
22191;SDS011;11261;52.456;10.850;2022-08-19T11:46:03;9.13;;;3.75;;
22191;SDS011;11261;52.456;10.850;2022-08-19T11:48:33;5.57;;;3.80;;
22191;SDS011;11261;52.456;10.850;2022-08-19T11:51:03;3.30;;;2.83;;
22191;SDS011;11261;52.456;10.850;2022-08-19T11:53:33;5.55;;;3.55;;
22191;SDS011;11261;52.456;10.850;2022-08-19T11:56:02;6.25;;;3.03;;
22191;SDS011;11261;52.456;10.850;2022-08-19T11:58:32;5.55;;;4.20;;
22191;SDS011;11261;52.456;10.850;2022-08-19T12:01:04;5.35;;;3.20;;
22191;SDS011;11261;52.456;10.850;2022-08-19T12:03:33;5.55;;;3.72;;
22191;SDS011;11261;52.456;10.850;2022-08-19T12:06:03;4.38;;;3.28;;
22191;SDS011;11261;52.456;10.850;2022-08-19T12:08:31;4.97;;;3.28;;
22191;SDS011;11261;52.456;10.850;2022-08-19T12:11:00;4.80;;;3.75;;
22191;SDS011;11261;52.456;10.850;2022-08-19T12:13:29;4.97;;;3.92;;
22191;SDS011;11261;52.456;10.850;2022-08-19T12:15:59;5.38;;;4.10;;
22191;SDS011;11261;52.456;10.850;2022-08-19T12:18:28;7.07;;;4.22;;
22191;SDS011;11261;52.456;10.850;2022-08-19T12:20:56;7.57;;;4.78;;
22191;SDS011;11261;52.456;10.850;2022-08-19T12:23:26;6.75;;;3.85;;
22191;SDS011;11261;52.456;10.850;2022-08-19T12:25:54;6.18;;;3.10;;
22191;SDS011;11261;52.456;10.850;2022-08-19T12:28:24;4.32;;;2.85;;
22191;SDS011;11261;52.456;10.850;2022-08-19T12:30:52;4.15;;;3.60;;
22191;SDS011;11261;52.456;10.850;2022-08-19T12:33:22;3.75;;;2.90;;
22191;SDS011;11261;52.456;10.850;2022-08-19T12:35:54;4.45;;;3.30;;
22191;SDS011;11261;52.456;10.850;2022-08-19T12:38:27;4.05;;;3.17;;
22191;SDS011;11261;52.456;10.850;2022-08-19T12:40:55;5.22;;;3.08;;
22191;SDS011;11261;52.456;10.850;2022-08-19T12:43:25;5.00;;;3.10;;
22191;SDS011;11261;52.456;10.850;2022-08-19T12:45:55;4.40;;;3.40;;
22191;SDS011;11261;52.456;10.850;2022-08-19T12:48:25;6.20;;;3.30;;
22191;SDS011;11261;52.456;10.850;2022-08-19T12:50:59;4.40;;;3.50;;
22191;SDS011;11261;52.456;10.850;2022-08-19T12:53:28;4.40;;;3.40;;
22191;SDS011;11261;52.456;10.850;2022-08-19T12:55:57;5.18;;;4.00;;
22191;SDS011;11261;52.456;10.850;2022-08-19T12:58:26;4.88;;;3.05;;
22191;SDS011;11261;52.456;10.850;2022-08-19T13:00:55;3.35;;;2.83;;
22191;SDS011;11261;52.456;10.850;2022-08-19T13:03:24;6.13;;;3.03;;
22191;SDS011;11261;52.456;10.850;2022-08-19T13:05:55;4.60;;;2.88;;
22191;SDS011;11261;52.456;10.850;2022-08-19T13:08:24;6.43;;;3.45;;
22191;SDS011;11261;52.456;10.850;2022-08-19T13:10:52;3.60;;;3.03;;
22191;SDS011;11261;52.456;10.850;2022-08-19T13:13:21;4.25;;;2.97;;
22191;SDS011;11261;52.456;10.850;2022-08-19T13:15:50;2.97;;;2.67;;
22191;SDS011;11261;52.456;10.850;2022-08-19T13:18:18;3.60;;;3.03;;
22191;SDS011;11261;52.456;10.850;2022-08-19T13:20:49;3.45;;;2.80;;
22191;SDS011;11261;52.456;10.850;2022-08-19T13:23:18;4.70;;;2.70;;
22191;SDS011;11261;52.456;10.850;2022-08-19T13:25:54;4.05;;;2.70;;
22191;SDS011;11261;52.456;10.850;2022-08-19T13:28:23;3.25;;;2.60;;
22191;SDS011;11261;52.456;10.850;2022-08-19T13:30:54;3.95;;;2.97;;
22191;SDS011;11261;52.456;10.850;2022-08-19T13:33:40;3.25;;;2.58;;
22191;SDS011;11261;52.456;10.850;2022-08-19T13:36:10;3.03;;;2.70;;
22191;SDS011;11261;52.456;10.850;2022-08-19T13:38:38;4.43;;;3.10;;
22191;SDS011;11261;52.456;10.850;2022-08-19T13:41:06;3.50;;;2.50;;
22191;SDS011;11261;52.456;10.850;2022-08-19T13:43:40;2.95;;;2.42;;
22191;SDS011;11261;52.456;10.850;2022-08-19T13:46:08;5.55;;;2.90;;
22191;SDS011;11261;52.456;10.850;2022-08-19T13:48:40;3.78;;;3.00;;
22191;SDS011;11261;52.456;10.850;2022-08-19T13:51:10;6.15;;;2.95;;
22191;SDS011;11261;52.456;10.850;2022-08-19T13:53:39;5.65;;;2.80;;
22191;SDS011;11261;52.456;10.850;2022-08-19T13:56:14;2.60;;;2.25;;
22191;SDS011;11261;52.456;10.850;2022-08-19T13:58:48;3.28;;;2.90;;
22191;SDS011;11261;52.456;10.850;2022-08-19T14:01:18;3.50;;;2.72;;
22191;SDS011;11261;52.456;10.850;2022-08-19T14:03:50;4.40;;;2.70;;
22191;SDS011;11261;52.456;10.850;2022-08-19T14:06:20;3.92;;;2.90;;
22191;SDS011;11261;52.456;10.850;2022-08-19T14:08:48;4.15;;;2.78;;
22191;SDS011;11261;52.456;10.850;2022-08-19T14:11:18;4.63;;;3.17;;
22191;SDS011;11261;52.456;10.850;2022-08-19T14:13:46;4.43;;;2.90;;
22191;SDS011;11261;52.456;10.850;2022-08-19T14:16:14;4.63;;;2.88;;
22191;SDS011;11261;52.456;10.850;2022-08-19T14:18:43;4.20;;;2.95;;
22191;SDS011;11261;52.456;10.850;2022-08-19T14:21:14;3.72;;;2.75;;
22191;SDS011;11261;52.456;10.850;2022-08-19T14:23:46;5.78;;;3.40;;
22191;SDS011;11261;52.456;10.850;2022-08-19T14:26:16;3.40;;;3.03;;
22191;SDS011;11261;52.456;10.850;2022-08-19T14:28:46;3.58;;;2.92;;
22191;SDS011;11261;52.456;10.850;2022-08-19T14:31:16;3.72;;;2.80;;
22191;SDS011;11261;52.456;10.850;2022-08-19T14:33:46;3.70;;;2.85;;
22191;SDS011;11261;52.456;10.850;2022-08-19T14:36:15;3.80;;;3.15;;
22191;SDS011;11261;52.456;10.850;2022-08-19T14:38:43;4.65;;;3.20;;
22191;SDS011;11261;52.456;10.850;2022-08-19T14:41:14;5.75;;;3.20;;
22191;SDS011;11261;52.456;10.850;2022-08-19T14:43:44;4.18;;;2.58;;
22191;SDS011;11261;52.456;10.850;2022-08-19T14:46:13;3.47;;;2.80;;
22191;SDS011;11261;52.456;10.850;2022-08-19T14:48:43;3.15;;;2.85;;
22191;SDS011;11261;52.456;10.850;2022-08-19T14:51:15;4.57;;;3.22;;
22191;SDS011;11261;52.456;10.850;2022-08-19T14:53:45;4.60;;;2.63;;
22191;SDS011;11261;52.456;10.850;2022-08-19T14:56:15;3.63;;;3.08;;
22191;SDS011;11261;52.456;10.850;2022-08-19T14:58:45;4.80;;;3.30;;